sensor_id;sensor_type;location;lat;lon;timestamp;P1;durP1;ratioP1;P2;durP2;ratioP2
75062;SDS011;63981;51.052;13.754;2023-09-12T00:01:17;12.80;;;9.57;;
75062;SDS011;63981;51.052;13.754;2023-09-12T00:03:44;13.75;;;10.48;;
75062;SDS011;63981;51.052;13.754;2023-09-12T00:06:10;14.10;;;9.45;;
75062;SDS011;63981;51.052;13.754;2023-09-12T00:08:36;13.82;;;8.85;;
75062;SDS011;63981;51.052;13.754;2023-09-12T00:11:02;14.73;;;10.07;;
75062;SDS011;63981;51.052;13.754;2023-09-12T00:13:35;14.23;;;10.07;;
75062;SDS011;63981;51.052;13.754;2023-09-12T00:16:02;17.27;;;9.80;;
75062;SDS011;63981;51.052;13.754;2023-09-12T00:18:29;11.63;;;8.95;;
75062;SDS011;63981;51.052;13.754;2023-09-12T00:20:55;11.93;;;9.10;;
75062;SDS011;63981;51.052;13.754;2023-09-12T00:23:21;12.73;;;10.00;;
75062;SDS011;63981;51.052;13.754;2023-09-12T00:25:49;13.88;;;9.57;;
75062;SDS011;63981;51.052;13.754;2023-09-12T00:28:17;15.38;;;9.98;;
75062;SDS011;63981;51.052;13.754;2023-09-12T00:30:44;13.70;;;9.20;;
75062;SDS011;63981;51.052;13.754;2023-09-12T00:33:10;13.68;;;10.05;;
75062;SDS011;63981;51.052;13.754;2023-09-12T00:35:36;13.45;;;10.63;;
75062;SDS011;63981;51.052;13.754;2023-09-12T00:38:02;11.98;;;9.63;;
75062;SDS011;63981;51.052;13.754;2023-09-12T00:40:28;14.23;;;9.68;;
75062;SDS011;63981;51.052;13.754;2023-09-12T00:42:55;13.45;;;9.65;;
75062;SDS011;63981;51.052;13.754;2023-09-12T00:45:21;12.48;;;9.32;;
75062;SDS011;63981;51.052;13.754;2023-09-12T00:47:47;10.98;;;8.90;;
75062;SDS011;63981;51.052;13.754;2023-09-12T00:50:15;12.25;;;9.15;;
75062;SDS011;63981;51.052;13.754;2023-09-12T00:52:42;13.57;;;8.88;;
75062;SDS011;63981;51.052;13.754;2023-09-12T00:55:09;13.38;;;9.32;;
75062;SDS011;63981;51.052;13.754;2023-09-12T00:57:35;12.60;;;9.60;;
75062;SDS011;63981;51.052;13.754;2023-09-12T01:00:02;12.02;;;9.48;;
75062;SDS011;63981;51.052;13.754;2023-09-12T01:02:39;13.77;;;9.60;;
75062;SDS011;63981;51.052;13.754;2023-09-12T01:05:06;13.77;;;9.45;;
75062;SDS011;63981;51.052;13.754;2023-09-12T01:07:33;11.75;;;9.10;;
75062;SDS011;63981;51.052;13.754;2023-09-12T01:10:01;11.45;;;8.90;;
75062;SDS011;63981;51.052;13.754;2023-09-12T01:12:28;11.35;;;9.45;;
75062;SDS011;63981;51.052;13.754;2023-09-12T01:14:55;11.13;;;9.00;;
75062;SDS011;63981;51.052;13.754;2023-09-12T01:17:22;12.98;;;10.00;;
75062;SDS011;63981;51.052;13.754;2023-09-12T01:19:48;14.20;;;10.45;;
75062;SDS011;63981;51.052;13.754;2023-09-12T01:22:18;11.13;;;8.90;;
75062;SDS011;63981;51.052;13.754;2023-09-12T01:27:33;13.20;;;9.10;;
75062;SDS011;63981;51.052;13.754;2023-09-12T01:30:04;12.95;;;9.10;;
75062;SDS011;63981;51.052;13.754;2023-09-12T01:32:32;12.80;;;9.40;;
75062;SDS011;63981;51.052;13.754;2023-09-12T01:34:59;12.25;;;9.43;;
75062;SDS011;63981;51.052;13.754;2023-09-12T01:37:25;12.77;;;9.73;;
75062;SDS011;63981;51.052;13.754;2023-09-12T01:39:52;13.73;;;8.70;;
75062;SDS011;63981;51.052;13.754;2023-09-12T01:42:20;12.75;;;9.20;;
75062;SDS011;63981;51.052;13.754;2023-09-12T01:44:47;11.80;;;8.52;;
75062;SDS011;63981;51.052;13.754;2023-09-12T01:47:16;13.52;;;8.85;;
75062;SDS011;63981;51.052;13.754;2023-09-12T01:49:46;14.15;;;9.27;;
75062;SDS011;63981;51.052;13.754;2023-09-12T01:52:16;14.13;;;9.88;;
75062;SDS011;63981;51.052;13.754;2023-09-12T01:54:42;11.38;;;9.35;;
75062;SDS011;63981;51.052;13.754;2023-09-12T01:59:36;13.25;;;9.93;;
75062;SDS011;63981;51.052;13.754;2023-09-12T02:02:03;12.82;;;9.85;;
75062;SDS011;63981;51.052;13.754;2023-09-12T02:04:29;14.90;;;9.88;;
75062;SDS011;63981;51.052;13.754;2023-09-12T02:06:55;14.68;;;10.07;;
75062;SDS011;63981;51.052;13.754;2023-09-12T02:09:21;14.55;;;10.50;;
75062;SDS011;63981;51.052;13.754;2023-09-12T02:11:48;14.32;;;10.10;;
75062;SDS011;63981;51.052;13.754;2023-09-12T02:14:14;12.45;;;9.55;;
75062;SDS011;63981;51.052;13.754;2023-09-12T02:16:40;12.45;;;10.27;;
75062;SDS011;63981;51.052;13.754;2023-09-12T02:19:06;13.50;;;10.52;;
75062;SDS011;63981;51.052;13.754;2023-09-12T02:21:32;14.25;;;10.40;;
75062;SDS011;63981;51.052;13.754;2023-09-12T02:23:59;11.15;;;8.88;;
75062;SDS011;63981;51.052;13.754;2023-09-12T02:26:25;13.02;;;9.52;;
75062;SDS011;63981;51.052;13.754;2023-09-12T02:28:51;14.40;;;9.85;;
75062;SDS011;63981;51.052;13.754;2023-09-12T02:31:17;13.18;;;9.30;;
75062;SDS011;63981;51.052;13.754;2023-09-12T02:33:45;14.77;;;9.23;;
75062;SDS011;63981;51.052;13.754;2023-09-12T02:36:11;14.43;;;9.20;;
75062;SDS011;63981;51.052;13.754;2023-09-12T02:38:37;11.75;;;9.10;;
75062;SDS011;63981;51.052;13.754;2023-09-12T02:41:03;12.27;;;8.82;;
75062;SDS011;63981;51.052;13.754;2023-09-12T02:43:29;11.13;;;8.98;;
75062;SDS011;63981;51.052;13.754;2023-09-12T02:45:56;14.35;;;9.57;;
75062;SDS011;63981;51.052;13.754;2023-09-12T02:48:22;11.10;;;8.57;;
75062;SDS011;63981;51.052;13.754;2023-09-12T02:50:48;10.90;;;7.95;;
75062;SDS011;63981;51.052;13.754;2023-09-12T02:53:14;11.32;;;8.20;;
75062;SDS011;63981;51.052;13.754;2023-09-12T02:55:41;13.48;;;9.18;;
75062;SDS011;63981;51.052;13.754;2023-09-12T02:58:09;12.88;;;10.20;;
75062;SDS011;63981;51.052;13.754;2023-09-12T03:00:38;11.68;;;8.45;;
75062;SDS011;63981;51.052;13.754;2023-09-12T03:03:06;13.48;;;8.77;;
75062;SDS011;63981;51.052;13.754;2023-09-12T03:05:35;13.88;;;9.18;;
75062;SDS011;63981;51.052;13.754;2023-09-12T03:08:02;13.27;;;9.15;;
75062;SDS011;63981;51.052;13.754;2023-09-12T03:10:29;13.68;;;8.93;;
75062;SDS011;63981;51.052;13.754;2023-09-12T03:12:55;13.13;;;8.90;;
75062;SDS011;63981;51.052;13.754;2023-09-12T03:15:21;12.65;;;9.65;;
75062;SDS011;63981;51.052;13.754;2023-09-12T03:17:48;12.18;;;9.30;;
75062;SDS011;63981;51.052;13.754;2023-09-12T03:20:14;13.45;;;10.07;;
75062;SDS011;63981;51.052;13.754;2023-09-12T03:22:40;11.43;;;8.80;;
75062;SDS011;63981;51.052;13.754;2023-09-12T03:25:07;13.88;;;9.55;;
75062;SDS011;63981;51.052;13.754;2023-09-12T03:27:33;13.82;;;9.75;;
75062;SDS011;63981;51.052;13.754;2023-09-12T03:29:59;14.43;;;9.45;;
75062;SDS011;63981;51.052;13.754;2023-09-12T03:32:25;14.73;;;10.05;;
75062;SDS011;63981;51.052;13.754;2023-09-12T03:34:51;13.55;;;9.57;;
75062;SDS011;63981;51.052;13.754;2023-09-12T03:37:17;15.07;;;10.30;;
75062;SDS011;63981;51.052;13.754;2023-09-12T03:39:45;13.48;;;9.63;;
75062;SDS011;63981;51.052;13.754;2023-09-12T03:42:11;13.65;;;9.35;;
75062;SDS011;63981;51.052;13.754;2023-09-12T03:44:37;13.25;;;10.15;;
75062;SDS011;63981;51.052;13.754;2023-09-12T03:47:03;12.75;;;9.35;;
75062;SDS011;63981;51.052;13.754;2023-09-12T03:49:30;13.32;;;9.85;;
75062;SDS011;63981;51.052;13.754;2023-09-12T03:51:56;12.38;;;9.15;;
75062;SDS011;63981;51.052;13.754;2023-09-12T03:54:22;15.88;;;10.02;;
75062;SDS011;63981;51.052;13.754;2023-09-12T03:56:48;12.93;;;9.55;;
75062;SDS011;63981;51.052;13.754;2023-09-12T03:59:15;14.48;;;10.02;;
75062;SDS011;63981;51.052;13.754;2023-09-12T04:01:41;12.38;;;9.65;;
75062;SDS011;63981;51.052;13.754;2023-09-12T04:04:07;13.90;;;9.63;;
75062;SDS011;63981;51.052;13.754;2023-09-12T04:06:33;14.68;;;10.45;;
75062;SDS011;63981;51.052;13.754;2023-09-12T04:08:59;14.20;;;10.07;;
75062;SDS011;63981;51.052;13.754;2023-09-12T04:11:25;13.75;;;9.45;;
75062;SDS011;63981;51.052;13.754;2023-09-12T04:13:51;16.90;;;10.10;;
75062;SDS011;63981;51.052;13.754;2023-09-12T04:16:17;14.63;;;9.98;;
75062;SDS011;63981;51.052;13.754;2023-09-12T04:18:44;12.85;;;9.68;;
75062;SDS011;63981;51.052;13.754;2023-09-12T04:21:10;13.57;;;9.68;;
75062;SDS011;63981;51.052;13.754;2023-09-12T04:23:36;13.23;;;9.70;;
75062;SDS011;63981;51.052;13.754;2023-09-12T04:26:02;11.18;;;8.70;;
75062;SDS011;63981;51.052;13.754;2023-09-12T04:28:29;12.90;;;9.45;;
75062;SDS011;63981;51.052;13.754;2023-09-12T04:31:05;14.50;;;10.27;;
75062;SDS011;63981;51.052;13.754;2023-09-12T04:33:31;15.18;;;9.57;;
75062;SDS011;63981;51.052;13.754;2023-09-12T04:35:58;13.05;;;9.05;;
75062;SDS011;63981;51.052;13.754;2023-09-12T04:38:26;13.52;;;9.13;;
75062;SDS011;63981;51.052;13.754;2023-09-12T04:40:53;13.30;;;10.05;;
75062;SDS011;63981;51.052;13.754;2023-09-12T04:43:20;16.80;;;9.55;;
75062;SDS011;63981;51.052;13.754;2023-09-12T04:45:46;12.23;;;9.45;;
75062;SDS011;63981;51.052;13.754;2023-09-12T04:48:12;12.57;;;9.07;;
75062;SDS011;63981;51.052;13.754;2023-09-12T04:50:41;12.18;;;9.00;;
75062;SDS011;63981;51.052;13.754;2023-09-12T04:53:10;11.52;;;8.52;;
75062;SDS011;63981;51.052;13.754;2023-09-12T04:55:37;12.55;;;9.20;;
75062;SDS011;63981;51.052;13.754;2023-09-12T04:58:04;11.93;;;8.73;;
75062;SDS011;63981;51.052;13.754;2023-09-12T05:03:01;12.20;;;8.50;;
75062;SDS011;63981;51.052;13.754;2023-09-12T05:05:30;13.27;;;9.35;;
75062;SDS011;63981;51.052;13.754;2023-09-12T05:07:56;12.55;;;8.80;;
75062;SDS011;63981;51.052;13.754;2023-09-12T05:12:57;15.52;;;9.43;;
75062;SDS011;63981;51.052;13.754;2023-09-12T05:15:23;15.68;;;9.65;;
75062;SDS011;63981;51.052;13.754;2023-09-12T05:17:49;13.20;;;9.05;;
75062;SDS011;63981;51.052;13.754;2023-09-12T05:20:15;15.13;;;10.35;;
75062;SDS011;63981;51.052;13.754;2023-09-12T05:22:41;12.23;;;9.27;;
75062;SDS011;63981;51.052;13.754;2023-09-12T05:25:08;12.63;;;9.77;;
75062;SDS011;63981;51.052;13.754;2023-09-12T05:27:34;12.05;;;8.98;;
75062;SDS011;63981;51.052;13.754;2023-09-12T05:30:01;15.23;;;9.98;;
75062;SDS011;63981;51.052;13.754;2023-09-12T05:32:28;16.30;;;9.32;;
75062;SDS011;63981;51.052;13.754;2023-09-12T05:34:54;15.93;;;10.18;;
75062;SDS011;63981;51.052;13.754;2023-09-12T05:37:20;14.15;;;9.70;;
75062;SDS011;63981;51.052;13.754;2023-09-12T05:39:47;14.55;;;10.23;;
75062;SDS011;63981;51.052;13.754;2023-09-12T05:42:13;17.70;;;10.52;;
75062;SDS011;63981;51.052;13.754;2023-09-12T05:44:41;14.68;;;10.52;;
75062;SDS011;63981;51.052;13.754;2023-09-12T05:47:08;13.30;;;9.73;;
75062;SDS011;63981;51.052;13.754;2023-09-12T05:49:34;14.77;;;10.70;;
75062;SDS011;63981;51.052;13.754;2023-09-12T05:52:00;18.23;;;11.80;;
75062;SDS011;63981;51.052;13.754;2023-09-12T05:54:27;15.45;;;9.52;;
75062;SDS011;63981;51.052;13.754;2023-09-12T05:56:53;13.00;;;10.23;;
75062;SDS011;63981;51.052;13.754;2023-09-12T05:59:19;15.07;;;9.20;;
75062;SDS011;63981;51.052;13.754;2023-09-12T06:01:45;13.75;;;9.40;;
75062;SDS011;63981;51.052;13.754;2023-09-12T06:04:11;14.18;;;10.27;;
75062;SDS011;63981;51.052;13.754;2023-09-12T06:06:37;16.17;;;10.07;;
75062;SDS011;63981;51.052;13.754;2023-09-12T06:09:04;13.02;;;10.80;;
75062;SDS011;63981;51.052;13.754;2023-09-12T06:11:30;14.10;;;9.95;;
75062;SDS011;63981;51.052;13.754;2023-09-12T06:13:57;12.02;;;8.90;;
75062;SDS011;63981;51.052;13.754;2023-09-12T06:16:23;15.55;;;8.98;;
75062;SDS011;63981;51.052;13.754;2023-09-12T06:18:49;13.57;;;10.20;;
75062;SDS011;63981;51.052;13.754;2023-09-12T06:21:15;12.80;;;8.75;;
75062;SDS011;63981;51.052;13.754;2023-09-12T06:23:41;11.65;;;8.88;;
75062;SDS011;63981;51.052;13.754;2023-09-12T06:26:07;13.20;;;9.90;;
75062;SDS011;63981;51.052;13.754;2023-09-12T06:28:34;13.13;;;9.38;;
75062;SDS011;63981;51.052;13.754;2023-09-12T06:31:00;9.63;;;7.93;;
75062;SDS011;63981;51.052;13.754;2023-09-12T06:33:26;12.40;;;8.52;;
75062;SDS011;63981;51.052;13.754;2023-09-12T06:35:52;11.50;;;8.68;;
75062;SDS011;63981;51.052;13.754;2023-09-12T06:38:19;10.80;;;8.27;;
75062;SDS011;63981;51.052;13.754;2023-09-12T06:40:45;12.60;;;8.52;;
75062;SDS011;63981;51.052;13.754;2023-09-12T06:43:13;12.35;;;8.88;;
75062;SDS011;63981;51.052;13.754;2023-09-12T06:45:40;10.68;;;8.35;;
75062;SDS011;63981;51.052;13.754;2023-09-12T06:48:06;13.98;;;8.65;;
75062;SDS011;63981;51.052;13.754;2023-09-12T06:50:32;13.38;;;8.88;;
75062;SDS011;63981;51.052;13.754;2023-09-12T06:53:00;12.75;;;8.32;;
75062;SDS011;63981;51.052;13.754;2023-09-12T06:55:27;12.75;;;8.68;;
75062;SDS011;63981;51.052;13.754;2023-09-12T06:57:53;13.50;;;8.38;;
75062;SDS011;63981;51.052;13.754;2023-09-12T07:00:19;11.70;;;8.32;;
75062;SDS011;63981;51.052;13.754;2023-09-12T07:02:45;13.82;;;9.55;;
75062;SDS011;63981;51.052;13.754;2023-09-12T07:05:11;10.70;;;7.82;;
75062;SDS011;63981;51.052;13.754;2023-09-12T07:07:37;13.48;;;8.38;;
75062;SDS011;63981;51.052;13.754;2023-09-12T07:10:04;13.98;;;8.20;;
75062;SDS011;63981;51.052;13.754;2023-09-12T07:12:31;10.13;;;7.35;;
75062;SDS011;63981;51.052;13.754;2023-09-12T07:14:58;11.98;;;8.57;;
75062;SDS011;63981;51.052;13.754;2023-09-12T07:17:27;12.98;;;7.78;;
75062;SDS011;63981;51.052;13.754;2023-09-12T07:19:53;10.02;;;7.95;;
75062;SDS011;63981;51.052;13.754;2023-09-12T07:22:19;11.10;;;7.85;;
75062;SDS011;63981;51.052;13.754;2023-09-12T07:24:45;10.65;;;7.57;;
75062;SDS011;63981;51.052;13.754;2023-09-12T07:27:11;10.57;;;7.43;;
75062;SDS011;63981;51.052;13.754;2023-09-12T07:29:37;8.40;;;6.82;;
75062;SDS011;63981;51.052;13.754;2023-09-12T07:32:04;10.02;;;7.00;;
75062;SDS011;63981;51.052;13.754;2023-09-12T07:34:30;9.55;;;7.85;;
75062;SDS011;63981;51.052;13.754;2023-09-12T07:36:56;10.27;;;7.07;;
75062;SDS011;63981;51.052;13.754;2023-09-12T07:39:23;9.55;;;7.25;;
75062;SDS011;63981;51.052;13.754;2023-09-12T07:41:49;10.75;;;7.30;;
75062;SDS011;63981;51.052;13.754;2023-09-12T07:44:15;10.55;;;6.60;;
75062;SDS011;63981;51.052;13.754;2023-09-12T07:46:43;10.95;;;7.47;;
75062;SDS011;63981;51.052;13.754;2023-09-12T07:49:09;8.73;;;7.05;;
75062;SDS011;63981;51.052;13.754;2023-09-12T07:51:35;9.73;;;7.10;;
75062;SDS011;63981;51.052;13.754;2023-09-12T07:54:01;13.23;;;8.82;;
75062;SDS011;63981;51.052;13.754;2023-09-12T07:56:28;19.65;;;10.75;;
75062;SDS011;63981;51.052;13.754;2023-09-12T07:58:57;13.45;;;7.70;;
75062;SDS011;63981;51.052;13.754;2023-09-12T08:03:51;9.73;;;6.15;;
75062;SDS011;63981;51.052;13.754;2023-09-12T08:06:17;8.80;;;6.18;;
75062;SDS011;63981;51.052;13.754;2023-09-12T08:08:43;10.35;;;6.32;;
75062;SDS011;63981;51.052;13.754;2023-09-12T08:11:09;9.18;;;6.68;;
75062;SDS011;63981;51.052;13.754;2023-09-12T08:13:35;9.60;;;6.78;;
75062;SDS011;63981;51.052;13.754;2023-09-12T08:16:01;8.48;;;7.03;;
75062;SDS011;63981;51.052;13.754;2023-09-12T08:18:30;7.63;;;6.05;;
75062;SDS011;63981;51.052;13.754;2023-09-12T08:20:57;9.75;;;6.32;;
75062;SDS011;63981;51.052;13.754;2023-09-12T08:23:23;51.70;;;19.30;;
75062;SDS011;63981;51.052;13.754;2023-09-12T08:25:49;7.18;;;5.82;;
75062;SDS011;63981;51.052;13.754;2023-09-12T08:28:15;8.27;;;7.00;;
75062;SDS011;63981;51.052;13.754;2023-09-12T08:30:42;9.02;;;6.07;;
75062;SDS011;63981;51.052;13.754;2023-09-12T08:33:10;11.52;;;7.28;;
75062;SDS011;63981;51.052;13.754;2023-09-12T08:35:36;11.48;;;6.68;;
75062;SDS011;63981;51.052;13.754;2023-09-12T08:38:02;8.52;;;6.68;;
75062;SDS011;63981;51.052;13.754;2023-09-12T08:40:28;10.25;;;6.25;;
75062;SDS011;63981;51.052;13.754;2023-09-12T08:42:56;7.72;;;6.32;;
75062;SDS011;63981;51.052;13.754;2023-09-12T08:45:23;8.25;;;5.95;;
75062;SDS011;63981;51.052;13.754;2023-09-12T08:47:50;9.18;;;5.72;;
75062;SDS011;63981;51.052;13.754;2023-09-12T08:50:18;6.68;;;5.85;;
75062;SDS011;63981;51.052;13.754;2023-09-12T08:52:46;6.72;;;6.03;;
75062;SDS011;63981;51.052;13.754;2023-09-12T08:55:13;7.30;;;6.00;;
75062;SDS011;63981;51.052;13.754;2023-09-12T08:57:42;43.50;;;7.90;;
75062;SDS011;63981;51.052;13.754;2023-09-12T09:00:11;7.05;;;5.75;;
75062;SDS011;63981;51.052;13.754;2023-09-12T09:02:40;10.82;;;5.80;;
75062;SDS011;63981;51.052;13.754;2023-09-12T09:05:08;6.30;;;5.38;;
75062;SDS011;63981;51.052;13.754;2023-09-12T09:07:37;7.93;;;5.93;;
75062;SDS011;63981;51.052;13.754;2023-09-12T09:10:05;6.55;;;5.78;;
75062;SDS011;63981;51.052;13.754;2023-09-12T09:12:33;8.43;;;6.45;;
75062;SDS011;63981;51.052;13.754;2023-09-12T09:17:46;7.93;;;6.60;;
75062;SDS011;63981;51.052;13.754;2023-09-12T09:20:25;8.48;;;5.20;;
75062;SDS011;63981;51.052;13.754;2023-09-12T09:23:03;7.60;;;5.57;;
75062;SDS011;63981;51.052;13.754;2023-09-12T09:25:31;8.98;;;6.13;;
75062;SDS011;63981;51.052;13.754;2023-09-12T09:27:59;8.98;;;5.60;;
75062;SDS011;63981;51.052;13.754;2023-09-12T09:30:38;6.05;;;5.43;;
75062;SDS011;63981;51.052;13.754;2023-09-12T09:33:09;12.27;;;5.60;;
75062;SDS011;63981;51.052;13.754;2023-09-12T09:35:35;7.28;;;4.63;;
75062;SDS011;63981;51.052;13.754;2023-09-12T09:38:03;6.50;;;5.05;;
75062;SDS011;63981;51.052;13.754;2023-09-12T09:40:31;8.32;;;5.32;;
75062;SDS011;63981;51.052;13.754;2023-09-12T09:43:02;9.27;;;6.30;;
75062;SDS011;63981;51.052;13.754;2023-09-12T09:45:29;6.10;;;5.03;;
75062;SDS011;63981;51.052;13.754;2023-09-12T09:47:56;7.32;;;5.45;;
75062;SDS011;63981;51.052;13.754;2023-09-12T09:50:34;6.97;;;5.10;;
75062;SDS011;63981;51.052;13.754;2023-09-12T09:53:04;8.10;;;5.40;;
75062;SDS011;63981;51.052;13.754;2023-09-12T09:55:34;5.82;;;4.53;;
75062;SDS011;63981;51.052;13.754;2023-09-12T09:58:00;8.02;;;4.82;;
75062;SDS011;63981;51.052;13.754;2023-09-12T10:00:26;9.27;;;4.70;;
75062;SDS011;63981;51.052;13.754;2023-09-12T10:02:55;5.07;;;4.25;;
75062;SDS011;63981;51.052;13.754;2023-09-12T10:05:21;6.88;;;3.97;;
75062;SDS011;63981;51.052;13.754;2023-09-12T10:07:49;6.40;;;4.78;;
75062;SDS011;63981;51.052;13.754;2023-09-12T10:10:18;6.47;;;3.90;;
75062;SDS011;63981;51.052;13.754;2023-09-12T10:12:48;7.20;;;4.90;;
75062;SDS011;63981;51.052;13.754;2023-09-12T10:15:17;5.28;;;3.90;;
75062;SDS011;63981;51.052;13.754;2023-09-12T10:17:46;5.22;;;3.72;;
75062;SDS011;63981;51.052;13.754;2023-09-12T10:20:20;6.13;;;3.83;;
75062;SDS011;63981;51.052;13.754;2023-09-12T10:22:52;8.63;;;4.13;;
75062;SDS011;63981;51.052;13.754;2023-09-12T10:27:55;6.97;;;3.22;;
75062;SDS011;63981;51.052;13.754;2023-09-12T10:30:22;6.07;;;3.35;;
75062;SDS011;63981;51.052;13.754;2023-09-12T10:32:48;7.07;;;3.75;;
75062;SDS011;63981;51.052;13.754;2023-09-12T10:35:15;6.20;;;2.92;;
75062;SDS011;63981;51.052;13.754;2023-09-12T10:37:43;7.50;;;3.40;;
75062;SDS011;63981;51.052;13.754;2023-09-12T10:40:11;6.32;;;3.35;;
75062;SDS011;63981;51.052;13.754;2023-09-12T10:42:39;4.90;;;3.47;;
75062;SDS011;63981;51.052;13.754;2023-09-12T10:45:05;10.40;;;3.92;;
75062;SDS011;63981;51.052;13.754;2023-09-12T10:47:34;6.32;;;3.20;;
75062;SDS011;63981;51.052;13.754;2023-09-12T10:50:02;8.82;;;3.80;;
75062;SDS011;63981;51.052;13.754;2023-09-12T10:52:29;7.72;;;3.58;;
75062;SDS011;63981;51.052;13.754;2023-09-12T10:54:55;12.75;;;3.67;;
75062;SDS011;63981;51.052;13.754;2023-09-12T10:57:22;7.30;;;3.22;;
75062;SDS011;63981;51.052;13.754;2023-09-12T11:02:31;4.88;;;3.53;;
75062;SDS011;63981;51.052;13.754;2023-09-12T11:05:05;4.43;;;2.95;;
75062;SDS011;63981;51.052;13.754;2023-09-12T11:12:47;7.38;;;3.63;;
75062;SDS011;63981;51.052;13.754;2023-09-12T11:15:21;8.65;;;4.00;;
75062;SDS011;63981;51.052;13.754;2023-09-12T11:17:49;7.35;;;3.88;;
75062;SDS011;63981;51.052;13.754;2023-09-12T11:20:24;7.68;;;3.53;;
75062;SDS011;63981;51.052;13.754;2023-09-12T11:22:51;10.07;;;3.67;;
75062;SDS011;63981;51.052;13.754;2023-09-12T11:30:24;5.70;;;3.47;;
75062;SDS011;63981;51.052;13.754;2023-09-12T11:32:51;5.18;;;3.45;;
75062;SDS011;63981;51.052;13.754;2023-09-12T11:35:22;9.95;;;3.75;;
75062;SDS011;63981;51.052;13.754;2023-09-12T11:37:49;9.38;;;3.95;;
75062;SDS011;63981;51.052;13.754;2023-09-12T11:40:17;8.90;;;3.70;;
75062;SDS011;63981;51.052;13.754;2023-09-12T11:42:48;8.02;;;3.70;;
75062;SDS011;63981;51.052;13.754;2023-09-12T11:45:17;12.68;;;3.70;;
75062;SDS011;63981;51.052;13.754;2023-09-12T11:47:45;9.38;;;4.25;;
75062;SDS011;63981;51.052;13.754;2023-09-12T11:50:28;7.35;;;3.78;;
75062;SDS011;63981;51.052;13.754;2023-09-12T11:53:05;4.88;;;3.53;;
75062;SDS011;63981;51.052;13.754;2023-09-12T11:55:42;7.03;;;3.63;;
75062;SDS011;63981;51.052;13.754;2023-09-12T11:58:10;7.15;;;3.97;;
75062;SDS011;63981;51.052;13.754;2023-09-12T12:00:37;4.32;;;3.20;;
75062;SDS011;63981;51.052;13.754;2023-09-12T12:03:04;8.85;;;3.00;;
75062;SDS011;63981;51.052;13.754;2023-09-12T12:05:30;7.95;;;2.42;;
75062;SDS011;63981;51.052;13.754;2023-09-12T12:07:57;6.30;;;3.03;;
75062;SDS011;63981;51.052;13.754;2023-09-12T12:10:23;8.77;;;3.53;;
75062;SDS011;63981;51.052;13.754;2023-09-12T12:12:52;7.45;;;3.47;;
75062;SDS011;63981;51.052;13.754;2023-09-12T12:15:19;7.18;;;2.92;;
75062;SDS011;63981;51.052;13.754;2023-09-12T12:20:11;7.75;;;3.08;;
75062;SDS011;63981;51.052;13.754;2023-09-12T12:22:38;11.50;;;3.30;;
75062;SDS011;63981;51.052;13.754;2023-09-12T12:25:06;7.07;;;3.40;;
75062;SDS011;63981;51.052;13.754;2023-09-12T12:27:37;10.68;;;3.45;;
75062;SDS011;63981;51.052;13.754;2023-09-12T12:30:08;6.25;;;3.15;;
75062;SDS011;63981;51.052;13.754;2023-09-12T12:32:45;7.25;;;3.00;;
75062;SDS011;63981;51.052;13.754;2023-09-12T12:35:21;7.10;;;2.55;;
75062;SDS011;63981;51.052;13.754;2023-09-12T12:37:49;5.50;;;2.95;;
75062;SDS011;63981;51.052;13.754;2023-09-12T12:40:16;5.22;;;2.63;;
75062;SDS011;63981;51.052;13.754;2023-09-12T12:42:43;9.43;;;3.13;;
75062;SDS011;63981;51.052;13.754;2023-09-12T12:45:20;7.95;;;3.40;;
75062;SDS011;63981;51.052;13.754;2023-09-12T12:47:51;7.75;;;2.97;;
75062;SDS011;63981;51.052;13.754;2023-09-12T12:50:23;8.55;;;3.08;;
75062;SDS011;63981;51.052;13.754;2023-09-12T12:52:49;6.88;;;2.83;;
75062;SDS011;63981;51.052;13.754;2023-09-12T12:55:15;7.32;;;3.38;;
75062;SDS011;63981;51.052;13.754;2023-09-12T12:57:45;10.73;;;3.25;;
75062;SDS011;63981;51.052;13.754;2023-09-12T13:00:14;5.88;;;3.13;;
75062;SDS011;63981;51.052;13.754;2023-09-12T13:02:42;10.52;;;3.30;;
75062;SDS011;63981;51.052;13.754;2023-09-12T13:08:07;10.32;;;3.30;;
75062;SDS011;63981;51.052;13.754;2023-09-12T13:10:33;7.18;;;2.90;;
75062;SDS011;63981;51.052;13.754;2023-09-12T13:12:59;7.38;;;3.58;;
75062;SDS011;63981;51.052;13.754;2023-09-12T13:15:25;10.90;;;2.97;;
75062;SDS011;63981;51.052;13.754;2023-09-12T13:17:51;7.85;;;3.25;;
75062;SDS011;63981;51.052;13.754;2023-09-12T13:20:17;9.55;;;2.97;;
75062;SDS011;63981;51.052;13.754;2023-09-12T13:22:43;8.95;;;2.65;;
75062;SDS011;63981;51.052;13.754;2023-09-12T13:25:09;7.68;;;2.53;;
75062;SDS011;63981;51.052;13.754;2023-09-12T13:27:36;9.07;;;2.60;;
75062;SDS011;63981;51.052;13.754;2023-09-12T13:30:02;5.57;;;2.20;;
75062;SDS011;63981;51.052;13.754;2023-09-12T13:32:29;9.25;;;2.75;;
75062;SDS011;63981;51.052;13.754;2023-09-12T13:34:55;7.18;;;2.13;;
75062;SDS011;63981;51.052;13.754;2023-09-12T13:37:21;10.27;;;2.78;;
75062;SDS011;63981;51.052;13.754;2023-09-12T13:39:47;6.47;;;2.67;;
75062;SDS011;63981;51.052;13.754;2023-09-12T13:42:17;9.18;;;3.00;;
75062;SDS011;63981;51.052;13.754;2023-09-12T13:44:47;4.57;;;2.40;;
75062;SDS011;63981;51.052;13.754;2023-09-12T13:47:13;7.40;;;2.60;;
75062;SDS011;63981;51.052;13.754;2023-09-12T13:49:46;6.85;;;2.40;;
75062;SDS011;63981;51.052;13.754;2023-09-12T13:52:13;8.73;;;3.30;;
75062;SDS011;63981;51.052;13.754;2023-09-12T13:54:40;4.43;;;2.40;;
75062;SDS011;63981;51.052;13.754;2023-09-12T13:57:06;6.13;;;2.50;;
75062;SDS011;63981;51.052;13.754;2023-09-12T13:59:32;6.28;;;2.33;;
75062;SDS011;63981;51.052;13.754;2023-09-12T14:02:01;4.97;;;2.30;;
75062;SDS011;63981;51.052;13.754;2023-09-12T14:04:27;5.38;;;2.50;;
75062;SDS011;63981;51.052;13.754;2023-09-12T14:06:53;5.32;;;2.58;;
75062;SDS011;63981;51.052;13.754;2023-09-12T14:09:19;5.82;;;2.40;;
75062;SDS011;63981;51.052;13.754;2023-09-12T14:11:45;10.40;;;2.55;;
75062;SDS011;63981;51.052;13.754;2023-09-12T14:14:13;5.78;;;2.30;;
75062;SDS011;63981;51.052;13.754;2023-09-12T14:16:39;8.27;;;2.80;;
75062;SDS011;63981;51.052;13.754;2023-09-12T14:19:05;4.80;;;2.38;;
75062;SDS011;63981;51.052;13.754;2023-09-12T14:21:31;11.00;;;2.80;;
75062;SDS011;63981;51.052;13.754;2023-09-12T14:23:57;4.15;;;1.95;;
75062;SDS011;63981;51.052;13.754;2023-09-12T14:26:23;3.35;;;2.13;;
75062;SDS011;63981;51.052;13.754;2023-09-12T14:28:49;6.43;;;2.55;;
75062;SDS011;63981;51.052;13.754;2023-09-12T14:31:16;5.68;;;2.83;;
75062;SDS011;63981;51.052;13.754;2023-09-12T14:33:43;5.45;;;2.58;;
75062;SDS011;63981;51.052;13.754;2023-09-12T14:36:09;8.20;;;2.83;;
75062;SDS011;63981;51.052;13.754;2023-09-12T14:38:35;5.55;;;2.65;;
75062;SDS011;63981;51.052;13.754;2023-09-12T14:41:01;5.90;;;2.70;;
75062;SDS011;63981;51.052;13.754;2023-09-12T14:43:28;7.40;;;2.55;;
75062;SDS011;63981;51.052;13.754;2023-09-12T14:45:54;6.15;;;2.72;;
75062;SDS011;63981;51.052;13.754;2023-09-12T14:48:20;8.50;;;2.33;;
75062;SDS011;63981;51.052;13.754;2023-09-12T14:50:47;9.45;;;2.58;;
75062;SDS011;63981;51.052;13.754;2023-09-12T14:53:15;8.02;;;2.80;;
75062;SDS011;63981;51.052;13.754;2023-09-12T14:55:42;7.40;;;3.10;;
75062;SDS011;63981;51.052;13.754;2023-09-12T14:58:08;7.15;;;2.70;;
75062;SDS011;63981;51.052;13.754;2023-09-12T15:00:34;6.65;;;2.30;;
75062;SDS011;63981;51.052;13.754;2023-09-12T15:03:01;7.78;;;2.75;;